MMHO/HMO METAR and TAF weather

Enter ICAO airport designator
Station Type Date Time Source
MMHO METAR 2020/07/06 20:40 UTC NOAA

MMHO 062040Z 00000KT 10SM SCT100 SCT200 42/17 A2982 RMK SLP/// 57021 906 8/038 ISOL CU HZY


Station Type Date Time Source
MMHO Decoded METAR 2020/07/06 20:40 UTC NOAA

Hermosillo, Son., Mexico (MMHO) 29-04N 110-57W
Jul 06, 2020 - 04:40 PM EDT / 2020.07.06 2040 UTC
Wind: Calm:0
Visibility: 10 mile(s):0
Sky conditions: partly cloudy
Temperature: 107 F (42 C)
Heat index: 109.6 F (43.1 C):1
Dew Point: 62 F (17 C)
Relative Humidity: 23%
Pressure (altimeter): 29.82 in. Hg (1009 hPa)
Pressure tendency: 0.06 inches (2.1 hPa) lower than three hours ago
ob: MMHO 062040Z 00000KT 10SM SCT100 SCT200 42/17 A2982 RMK SLP/// 57021 906 8/038 ISOL CU HZY
cycle: 20

Station Type Date Time Source
MMHO TAF 2020/07/06 18:40 UTC NOAA

TAF MMHO 061634Z 0618/0718 14005KT P6SM SCT080
FM062100 23015KT P6SM SCT040
FM070000 14012KT P6SM SCT030CB BKN100 PROB40 0701/0705 3SM TSRA OVC020CB
FM070600 00000KT P6SM BKN100

Example: see airport list